Flight Track Log - Related Links

Times and Time Zones

All times are in EDT time to prevent confusion due to time zone crossing. See the UCA596 flight status page for this flight to view local times or setup timezone preferences in your user account.

Time Position Orientation Groundspeed Altitude Reporting Facility
EDT Latitude Longitude Course Direction KTS MPH feet Rate Location/Type
Mon 01:33:57 PM 38.9500 -77.5000 288° West 138 159 1,600  Level Potomac TRACON
Mon 01:34:57 PM 38.9667 -77.5667 288° West 166 191 3,000 1,450 Climbing Potomac TRACON
Mon 01:35:57 PM 39.0000 -77.6167 311° West 187 215 4,500 1,350 Climbing Potomac TRACON
Mon 01:36:57 PM 39.0500 -77.6333 345° North 195 224 5,700 1,378 Climbing Potomac TRACON
Mon 01:38:12 PM 39.1058 -77.6781 328° Northwest 204 235 7,600 1,324 Climbing Washington Center
Mon 01:39:13 PM 39.1575 -77.7036 339° North 199 229 8,700 1,190 Climbing Washington Center
Mon 01:40:13 PM 39.2156 -77.7186 349° North 199 229 10,000 1,388 Climbing Washington Center
Mon 01:41:14 PM 39.2736 -77.7336 349° North 204 235 11,500 1,388 Climbing Washington Center
Mon 01:42:14 PM 39.3297 -77.7514 346° North 204 235 12,800 1,220 Climbing Washington Center
Mon 01:43:12 PM 39.3856 -77.7667 348° North 204 235 13,900 605 Climbing Washington Center
Mon 01:44:13 PM 39.4500 -77.7847 348° North 209 241 14,000 545 Climbing Washington Center
Mon 01:45:13 PM 39.5183 -77.8028 348° North 230 265 15,000 330 Climbing Washington Center
Mon 01:47:15 PM 39.6675 -77.8511 346° North 266 306 15,000  Level New York Center
Mon 01:48:16 PM 39.7422 -77.8208 17° North 266 306 15,000  Level New York Center
Mon 01:49:16 PM 39.8139 -77.7714 28° Northeast 272 313 15,000  Level New York Center
Mon 01:50:16 PM 39.8878 -77.7217 27° Northeast 283 326 15,000  Level New York Center
Mon 01:51:16 PM 39.9639 -77.6697 28° Northeast 294 338 15,000  Level New York Center
Mon 01:52:16 PM 40.0356 -77.6197 28° Northeast 294 338 15,000  Level New York Center
Mon 01:53:15 PM 40.1094 -77.5675 28° Northeast 299 344 15,000  Level New York Center
Mon 01:54:16 PM 40.1767 -77.5222 27° Northeast 299 344 15,000  Level New York Center
Mon 01:55:16 PM 40.2569 -77.4675 27° Northeast 299 344 15,000  Level New York Center
Mon 01:56:15 PM 40.3306 -77.4203 26° Northeast 299 344 15,000  Level New York Center
Mon 01:57:16 PM 40.4042 -77.3700 27° Northeast 299 344 15,000  Level New York Center
Mon 01:58:16 PM 40.4800 -77.3200 27° Northeast 299 344 15,000  Level New York Center
Mon 01:59:16 PM 40.5517 -77.2694 28° Northeast 299 344 15,000  Level New York Center
Mon 02:00:16 PM 40.6253 -77.2189 28° Northeast 299 344 15,000  Level New York Center
Mon 02:01:16 PM 40.6922 -77.1731 27° Northeast 299 344 15,000  Level New York Center
Mon 02:02:15 PM 40.7636 -77.1250 27° Northeast 299 344 15,000  Level New York Center
Mon 02:03:16 PM 40.8372 -77.0742 28° Northeast 299 344 15,000  Level New York Center
Mon 02:04:16 PM 40.9108 -77.0233 28° Northeast 299 344 15,000  Level New York Center
Mon 02:05:16 PM 40.9822 -76.9722 28° Northeast 299 344 15,000  Level New York Center
Mon 02:06:16 PM 41.0536 -76.9236 27° Northeast 299 344 15,000  Level New York Center
Mon 02:07:16 PM 41.1272 -76.8725 28° Northeast 299 344 15,000  Level New York Center
Mon 02:08:16 PM 41.2006 -76.8211 28° Northeast 299 344 15,000  Level New York Center
Mon 02:09:16 PM 41.2739 -76.7697 28° Northeast 299 344 15,000  Level New York Center
Mon 02:10:16 PM 41.3475 -76.7183 28° Northeast 299 344 15,000  Level New York Center
Mon 02:11:16 PM 41.4211 -76.6639 29° Northeast 299 344 15,000  Level New York Center
Mon 02:12:16 PM 41.4944 -76.6122 28° Northeast 299 344 15,000 -400 Level New York Center
Mon 02:13:16 PM 41.5764 -76.5556 27° Northeast 299 344 14,200 -900 Descending New York Center
Mon 02:14:16 PM 41.6542 -76.4983 29° Northeast 304 350 13,200 -1,050 Descending New York Center
Mon 02:15:16 PM 41.7297 -76.4408 30° Northeast 309 356 12,100 -1,300 Descending New York Center
Mon 02:16:16 PM 41.8017 -76.3747 34° Northeast 314 361 10,600 -1,450 Descending New York Center
Mon 02:17:16 PM 41.8606 -76.3156 37° Northeast 301 346 9,200 -1,600 Descending New York Center
Mon 02:18:16 PM 41.9367 -76.2439 35° Northeast 301 346 7,400 -1,650 Descending New York Center
Mon 02:19:16 PM 42.0019 -76.1822 35° Northeast 296 341 5,900 -1,150 Descending New York Center
Mon 02:20:16 PM 42.0675 -76.1178 36° Northeast 290 334 5,100 -450 Descending New York Center
Mon 02:21:16 PM 42.1314 -76.0839 21° North 269 310 5,000 -400 Descending New York Center
Mon 02:22:16 PM 42.1956 -76.0889 357° North 239 275 4,300 -750 Descending New York Center
Mon 02:23:16 PM 42.2528 -76.0714 13° North 226 260 3,500 -750 Descending New York Center
Mon 02:24:16 PM 42.2672 -76.0247 67° East 135 155 2,800 -650 Descending New York Center
Mon 02:25:16 PM 42.2411 -76.0058 152° Southeast 83 96 2,200 3,100 Descending New York Center
Mon 02:26:16 PM 42.2569 -75.9764 54° Northeast 83 96 9,000 3,400 Climbing New York Center
Mon 02:27:16 PM 42.2642 -75.9489 70° East 83 96 9,000  Level New York Center
Mon 02:29:00 PM 42.2000 -75.9667 North  Level FlightAware Approximate
Mon 02:36:00 PM 42.2084 -75.9796 North  Level Estimated
Mon 02:37:00 PM 42.2084 -75.9796 North  Level Estimated

Login

Don't have an account? Register now (free) for customized features, flight alerts, and more!